createdAt,value
2019-04-16T00:00:26.546Z,54.10
2019-04-16T00:03:30.919Z,54.20
2019-04-16T00:06:52.945Z,53.80
2019-04-16T00:10:25.658Z,53.80
2019-04-16T00:13:55.132Z,53.80
2019-04-16T00:16:59.382Z,53.80
2019-04-16T00:20:06.608Z,53.70
2019-04-16T00:23:18.938Z,53.70
2019-04-16T00:26:26.495Z,53.90
2019-04-16T00:29:32.716Z,53.90
2019-04-16T00:32:37.997Z,53.70
2019-04-16T00:35:41.311Z,53.90
2019-04-16T00:38:45.595Z,53.80
2019-04-16T00:41:49.807Z,53.80
2019-04-16T00:44:54.108Z,53.80
2019-04-16T00:47:58.424Z,53.70
2019-04-16T00:51:02.834Z,53.60
2019-04-16T00:54:10.457Z,53.50
2019-04-16T00:57:17.676Z,53.20
2019-04-16T01:00:19.588Z,53.50
2019-04-16T01:03:23.996Z,53.50
2019-04-16T01:06:28.370Z,53.30
2019-04-16T01:09:32.686Z,53.30
2019-04-16T01:12:36.985Z,53.20
2019-04-16T01:15:41.278Z,53.20
2019-04-16T01:18:45.632Z,53.00
2019-04-16T01:21:49.915Z,53.00
2019-04-16T01:24:54.208Z,52.90
2019-04-16T01:28:01.820Z,52.70
2019-04-16T01:31:22.432Z,52.80
2019-04-16T01:34:57.748Z,52.70
2019-04-16T01:38:19.919Z,53.00
2019-04-16T01:41:24.206Z,52.70
2019-04-16T01:44:29.447Z,52.50
2019-04-16T01:47:37.032Z,52.80
2019-04-16T01:50:43.536Z,52.70
2019-04-16T01:53:46.325Z,52.70
2019-04-16T01:56:50.643Z,52.50
2019-04-16T01:59:55.045Z,52.60
2019-04-16T02:03:06.049Z,52.80
2019-04-16T02:06:10.466Z,52.40
2019-04-16T02:09:22.549Z,52.80
2019-04-16T02:12:20.821Z,52.80
2019-04-16T02:15:25.181Z,52.50
2019-04-16T02:18:30.318Z,52.50
2019-04-16T02:21:34.792Z,52.50
2019-04-16T02:24:39.254Z,52.70
2019-04-16T02:27:45.043Z,52.70
2019-04-16T02:30:49.363Z,52.80
2019-04-16T02:33:55.533Z,52.70
2019-04-16T02:37:02.498Z,52.80
2019-04-16T02:40:08.899Z,52.70
2019-04-16T02:43:15.128Z,52.90
2019-04-16T02:46:19.504Z,52.90
2019-04-16T02:49:25.155Z,53.60
2019-04-16T02:52:41.121Z,53.10
2019-04-16T02:55:53.342Z,53.20
2019-04-16T02:59:09.549Z,53.00
2019-04-16T03:02:46.299Z,53.20
2019-04-16T03:05:52.161Z,53.20
2019-04-16T03:08:56.485Z,53.10
2019-04-16T03:12:00.902Z,53.20
2019-04-16T03:15:05.373Z,53.30
2019-04-16T03:18:11.679Z,53.30
2019-04-16T03:21:18.754Z,53.20
2019-04-16T03:24:23.111Z,52.80
2019-04-16T03:27:27.433Z,53.10
2019-04-16T03:30:40.425Z,53.70
2019-04-16T03:33:37.849Z,53.10
2019-04-16T03:36:42.149Z,53.20
2019-04-16T03:39:46.514Z,53.30
2019-04-16T03:42:50.812Z,53.30
2019-04-16T03:45:55.121Z,53.50
2019-04-16T03:48:59.528Z,53.30
2019-04-16T03:52:04.816Z,53.50
2019-04-16T03:55:09.987Z,53.60
2019-04-16T03:58:14.256Z,53.70
2019-04-16T04:01:18.634Z,53.70
2019-04-16T04:04:22.918Z,53.40
2019-04-16T04:07:27.349Z,53.40
2019-04-16T04:10:36.758Z,53.40
2019-04-16T04:13:37.785Z,53.50
2019-04-16T04:16:42.188Z,53.40
2019-04-16T04:19:46.892Z,53.50
2019-04-16T04:22:51.248Z,53.60
2019-04-16T04:25:55.576Z,53.60
2019-04-16T04:28:59.937Z,53.40
2019-04-16T04:32:04.341Z,53.40
2019-04-16T04:35:08.792Z,53.40
2019-04-16T04:38:13.109Z,53.70
2019-04-16T04:41:20.165Z,53.50
2019-04-16T04:44:23.625Z,53.90
2019-04-16T04:47:28.005Z,54.30
2019-04-16T04:50:35.018Z,54.20
2019-04-16T04:53:38.354Z,54.60
2019-04-16T04:56:42.611Z,54.90
2019-04-16T04:59:47.359Z,55.50
2019-04-16T05:02:51.649Z,55.90
2019-04-16T05:05:57.517Z,55.90
2019-04-16T05:09:01.869Z,56.00
2019-04-16T05:12:08.048Z,56.20
2019-04-16T05:15:12.545Z,56.20
2019-04-16T05:18:16.865Z,55.60
2019-04-16T05:21:21.157Z,55.70
2019-04-16T05:24:28.852Z,55.70
2019-04-16T05:27:32.726Z,55.70
2019-04-16T05:30:37.029Z,55.50
2019-04-16T05:33:42.837Z,54.80
2019-04-16T05:36:48.136Z,54.70
2019-04-16T05:39:52.549Z,54.30
2019-04-16T05:42:58.811Z,53.90
2019-04-16T05:46:05.506Z,53.00
2019-04-16T05:49:08.961Z,52.50
2019-04-16T05:52:13.258Z,52.20
2019-04-16T05:55:31.866Z,52.00
2019-04-16T05:58:36.286Z,52.10
2019-04-16T06:02:05.546Z,51.90
2019-04-16T06:05:10.282Z,51.40
2019-04-16T06:08:14.589Z,50.90
2019-04-16T06:11:28.693Z,50.00
2019-04-16T06:14:46.499Z,49.20
2019-04-16T06:18:18.055Z,49.10
2019-04-16T06:21:56.414Z,49.30
2019-04-16T06:25:15.890Z,49.30
2019-04-16T06:28:33.577Z,49.60
2019-04-16T06:32:00.559Z,49.40
2019-04-16T06:35:24.960Z,49.70
2019-04-16T06:38:43.797Z,50.80
2019-04-16T06:42:07.215Z,51.60
2019-04-16T06:45:27.077Z,53.70
2019-04-16T06:48:35.343Z,53.30
2019-04-16T06:51:59.718Z,53.20
2019-04-16T06:55:12.462Z,52.70
2019-04-16T06:58:28.431Z,52.00
2019-04-16T07:01:56.912Z,52.00
2019-04-16T07:05:31.411Z,51.80
2019-04-16T07:09:00.541Z,51.90
2019-04-16T07:12:08.745Z,52.10
2019-04-16T07:15:13.460Z,51.70
2019-04-16T07:18:20.522Z,50.60
2019-04-16T07:21:24.489Z,50.80
2019-04-16T07:24:30.836Z,51.20
2019-04-16T07:27:59.858Z,50.90
2019-04-16T07:31:16.554Z,50.20
2019-04-16T07:34:44.146Z,50.60
2019-04-16T07:38:11.654Z,50.20
2019-04-16T07:41:43.288Z,48.70
2019-04-16T07:45:11.372Z,48.20
2019-04-16T07:48:22.521Z,47.50
2019-04-16T07:51:35.810Z,47.30
2019-04-16T07:54:49.512Z,47.60
2019-04-16T07:57:55.861Z,47.10
2019-04-16T08:01:00.314Z,46.30
2019-04-16T08:04:04.631Z,46.70
2019-04-16T08:07:09.010Z,47.00
2019-04-16T08:10:16.778Z,47.20
2019-04-16T08:13:21.824Z,47.40
2019-04-16T08:16:26.127Z,47.50
2019-04-16T08:19:37.038Z,45.30
2019-04-16T08:22:39.942Z,43.70
2019-04-16T08:25:43.644Z,42.50
2019-04-16T08:28:47.911Z,42.50
2019-04-16T08:31:52.222Z,43.00
2019-04-16T08:34:56.746Z,42.30
2019-04-16T08:38:01.172Z,42.50
2019-04-16T08:41:05.626Z,41.90
2019-04-16T08:44:12.725Z,41.60
2019-04-16T08:47:20.116Z,41.10
2019-04-16T08:50:26.160Z,41.10
2019-04-16T08:53:30.692Z,42.00
2019-04-16T08:56:35.055Z,42.40
2019-04-16T08:59:42.342Z,41.50
2019-04-16T09:02:45.452Z,40.70
2019-04-16T09:05:49.760Z,41.20
2019-04-16T09:09:18.492Z,41.50
2019-04-16T09:12:23.429Z,39.30
2019-04-16T09:15:33.327Z,41.10
2019-04-16T09:19:05.883Z,40.30
2019-04-16T09:22:15.734Z,40.20
2019-04-16T09:25:53.731Z,39.30
2019-04-16T09:29:26.097Z,40.40
2019-04-16T09:32:29.483Z,37.70
2019-04-16T09:35:38.630Z,38.40
2019-04-16T09:39:07.899Z,37.20
2019-04-16T09:42:12.130Z,38.80
2019-04-16T09:45:18.423Z,39.30
2019-04-16T09:48:22.747Z,37.90
2019-04-16T09:51:27.059Z,38.10
2019-04-16T09:54:31.439Z,38.10
2019-04-16T09:57:35.746Z,35.60
2019-04-16T10:00:41.606Z,37.10
2019-04-16T10:03:47.449Z,37.50
2019-04-16T10:06:51.864Z,38.60
2019-04-16T10:09:56.156Z,37.20
2019-04-16T10:13:00.483Z,37.80
2019-04-16T10:16:04.946Z,34.60
2019-04-16T10:19:09.379Z,35.60
2019-04-16T10:22:13.845Z,35.70
2019-04-16T10:25:18.207Z,36.50
2019-04-16T10:28:29.422Z,37.60
2019-04-16T10:31:35.818Z,37.10
2019-04-16T10:34:40.214Z,37.60
2019-04-16T10:37:44.566Z,37.30
2019-04-16T10:40:54.054Z,36.10
2019-04-16T10:44:21.716Z,35.10
2019-04-16T10:47:50.517Z,35.50
2019-04-16T10:51:29.136Z,35.20
2019-04-16T10:54:52.588Z,34.60
2019-04-16T10:58:27.820Z,34.70
2019-04-16T11:01:39.852Z,33.90
2019-04-16T11:05:03.286Z,34.80
2019-04-16T11:08:12.068Z,35.10
2019-04-16T11:11:16.528Z,34.70
2019-04-16T11:14:20.908Z,35.10
2019-04-16T11:17:27.579Z,35.30
2019-04-16T11:20:32.107Z,35.10
2019-04-16T11:23:36.487Z,34.70
2019-04-16T11:26:44.449Z,35.50
2019-04-16T11:29:47.923Z,34.90
2019-04-16T11:32:53.441Z,33.90
2019-04-16T11:35:59.383Z,32.00
2019-04-16T11:39:05.690Z,30.90
2019-04-16T11:42:10.093Z,31.70
2019-04-16T11:45:15.184Z,31.70
2019-04-16T11:48:19.518Z,31.50
2019-04-16T11:51:25.015Z,32.00
2019-04-16T11:54:29.439Z,32.50
2019-04-16T11:57:34.128Z,33.30
2019-04-16T12:00:46.919Z,33.30
2019-04-16T12:04:10.980Z,33.40
2019-04-16T12:07:49.254Z,32.80
2019-04-16T12:11:15.599Z,33.40
2019-04-16T12:14:34.532Z,34.60
2019-04-16T12:18:04.455Z,34.70
2019-04-16T12:21:40.132Z,34.50
2019-04-16T12:25:06.255Z,33.70
2019-04-16T12:28:42.173Z,33.00
2019-04-16T12:32:06.125Z,33.50
2019-04-16T12:35:35.699Z,34.10
2019-04-16T12:38:44.997Z,34.50
2019-04-16T12:42:01.215Z,34.60
2019-04-16T12:45:28.163Z,34.60
2019-04-16T12:48:54.469Z,34.40
2019-04-16T12:52:23.628Z,33.50
2019-04-16T12:56:07.770Z,32.70
2019-04-16T12:59:22.063Z,33.10
2019-04-16T13:02:33.859Z,33.00
2019-04-16T13:06:06.547Z,32.20
2019-04-16T13:09:32.735Z,33.20
2019-04-16T13:13:13.705Z,34.50
2019-04-16T13:16:25.976Z,34.50
2019-04-16T13:19:36.772Z,33.60
2019-04-16T13:22:45.547Z,32.70
2019-04-16T13:26:05.527Z,33.30
2019-04-16T13:29:21.510Z,33.20
2019-04-16T13:32:27.813Z,32.30
2019-04-16T13:35:34.578Z,33.10
2019-04-16T13:38:42.627Z,32.70
2019-04-16T13:41:46.973Z,33.50
2019-04-16T13:45:17.559Z,34.10
2019-04-16T13:48:35.887Z,34.40
2019-04-16T13:51:40.453Z,33.70
2019-04-16T13:55:10.485Z,34.60
2019-04-16T13:58:25.474Z,34.10
2019-04-16T14:01:32.859Z,35.10
2019-04-16T14:04:37.259Z,34.90
2019-04-16T14:07:41.610Z,34.10
2019-04-16T14:10:46.026Z,34.10
2019-04-16T14:13:50.428Z,33.90
2019-04-16T14:16:54.662Z,33.20
2019-04-16T14:19:58.963Z,34.20
2019-04-16T14:23:03.601Z,34.80
2019-04-16T14:26:07.891Z,34.90
2019-04-16T14:29:12.301Z,35.70
2019-04-16T14:32:16.688Z,35.80
2019-04-16T14:35:33.353Z,35.60
2019-04-16T14:38:40.077Z,35.70
2019-04-16T14:41:48.717Z,35.90
2019-04-16T14:44:57.762Z,35.30
2019-04-16T14:48:07.606Z,35.00
2019-04-16T14:51:09.458Z,35.70
2019-04-16T14:54:20.405Z,35.20
2019-04-16T14:57:24.693Z,34.90
2019-04-16T15:00:57.325Z,35.20
2019-04-16T15:04:19.554Z,35.30
2019-04-16T15:07:51.974Z,35.80
2019-04-16T15:11:19.974Z,36.10
2019-04-16T15:14:29.487Z,36.20
2019-04-16T15:17:41.394Z,36.30
2019-04-16T15:20:53.885Z,34.90
2019-04-16T15:24:16.210Z,35.40
2019-04-16T15:27:39.552Z,35.30
2019-04-16T15:30:47.417Z,36.10
2019-04-16T15:34:03.483Z,36.30
2019-04-16T15:37:29.862Z,36.60
2019-04-16T15:40:39.309Z,36.40
2019-04-16T15:43:58.886Z,35.50
2019-04-16T15:47:18.023Z,35.20
2019-04-16T15:50:44.346Z,35.70
2019-04-16T15:54:16.732Z,36.00
2019-04-16T15:57:39.992Z,36.50
2019-04-16T16:00:58.939Z,36.80
2019-04-16T16:04:15.598Z,36.90
2019-04-16T16:07:32.346Z,36.90
2019-04-16T16:10:45.114Z,36.50
2019-04-16T16:13:48.058Z,36.60
2019-04-16T16:16:52.370Z,37.00
2019-04-16T16:19:56.859Z,37.10
2019-04-16T16:23:01.180Z,36.70
2019-04-16T16:26:05.687Z,37.00
2019-04-16T16:29:10.087Z,36.90
2019-04-16T16:32:15.590Z,36.90
2019-04-16T16:35:19.901Z,37.00
2019-04-16T16:38:24.416Z,36.70
2019-04-16T16:41:28.714Z,36.90
2019-04-16T16:44:33.065Z,37.10
2019-04-16T16:47:40.772Z,37.60
2019-04-16T16:50:45.126Z,37.60
2019-04-16T16:54:07.928Z,37.80
2019-04-16T16:57:23.943Z,37.60
2019-04-16T17:00:46.075Z,37.60
2019-04-16T17:03:55.031Z,37.90
2019-04-16T17:06:59.440Z,38.20
2019-04-16T17:10:03.779Z,38.30
2019-04-16T17:13:13.108Z,38.30
2019-04-16T17:16:14.881Z,38.40
2019-04-16T17:19:19.275Z,38.60
2019-04-16T17:22:23.636Z,38.60
2019-04-16T17:25:36.202Z,38.70
2019-04-16T17:28:34.091Z,38.80
2019-04-16T17:31:38.417Z,39.00
2019-04-16T17:34:42.852Z,39.00
2019-04-16T17:37:47.243Z,39.20
2019-04-16T17:40:59.579Z,39.30
2019-04-16T17:44:34.263Z,39.30
2019-04-16T17:48:09.514Z,39.40
2019-04-16T17:51:32.961Z,39.60
2019-04-16T17:54:58.964Z,39.70
2019-04-16T17:58:27.333Z,39.90
2019-04-16T18:01:47.774Z,40.10
2019-04-16T18:05:26.426Z,40.10
2019-04-16T18:08:52.542Z,40.40
2019-04-16T18:12:09.962Z,40.40
2019-04-16T18:15:21.801Z,40.50
2019-04-16T18:18:30.976Z,40.70
2019-04-16T18:21:49.241Z,40.90
2019-04-16T18:25:21.436Z,41.00
2019-04-16T18:28:30.347Z,41.10
2019-04-16T18:31:45.312Z,41.30
2019-04-16T18:35:20.697Z,41.50
2019-04-16T18:38:35.518Z,41.50
2019-04-16T18:41:55.823Z,41.60
2019-04-16T18:45:24.557Z,41.60
2019-04-16T18:48:31.224Z,41.90
2019-04-16T18:51:35.649Z,42.10
2019-04-16T18:54:40.029Z,42.10
2019-04-16T18:57:44.356Z,42.30
2019-04-16T19:00:51.159Z,42.40
2019-04-16T19:03:55.529Z,42.50
2019-04-16T19:06:59.921Z,42.50
2019-04-16T19:10:05.600Z,42.40
2019-04-16T19:13:11.724Z,42.40
2019-04-16T19:16:16.831Z,42.40
2019-04-16T19:19:22.334Z,42.50
2019-04-16T19:22:26.939Z,42.60
2019-04-16T19:25:31.324Z,42.70
2019-04-16T19:28:36.288Z,42.70
2019-04-16T19:31:42.313Z,42.80
2019-04-16T19:34:46.662Z,43.00
2019-04-16T19:37:50.942Z,43.20
2019-04-16T19:40:55.267Z,43.30
2019-04-16T19:43:59.636Z,43.30
2019-04-16T19:47:04.123Z,43.60
2019-04-16T19:50:12.160Z,43.70
2019-04-16T19:53:16.554Z,44.00
2019-04-16T19:56:22.041Z,44.20
2019-04-16T19:59:26.419Z,44.30
2019-04-16T20:02:33.284Z,44.40
2019-04-16T20:05:36.838Z,44.50
2019-04-16T20:08:42.649Z,44.60
2019-04-16T20:11:46.953Z,44.60
2019-04-16T20:14:51.265Z,44.40
2019-04-16T20:17:55.601Z,44.40
2019-04-16T20:21:01.774Z,44.40
2019-04-16T20:24:06.592Z,44.40
2019-04-16T20:27:10.987Z,44.30
2019-04-16T20:30:16.495Z,44.40
2019-04-16T20:33:20.800Z,44.50
2019-04-16T20:36:25.943Z,44.40
2019-04-16T20:39:30.311Z,44.60
2019-04-16T20:42:35.832Z,44.60
2019-04-16T20:45:40.218Z,44.70
2019-04-16T20:48:45.094Z,44.90
2019-04-16T20:51:50.068Z,45.00
2019-04-16T20:54:54.899Z,44.90
2019-04-16T20:58:00.261Z,45.00
2019-04-16T21:01:05.483Z,45.00
2019-04-16T21:04:09.783Z,45.20
2019-04-16T21:07:15.352Z,45.20
2019-04-16T21:10:19.862Z,45.30
2019-04-16T21:13:24.217Z,45.20
2019-04-16T21:16:33.510Z,45.30
2019-04-16T21:19:47.951Z,45.30
2019-04-16T21:22:53.035Z,45.30
2019-04-16T21:25:57.546Z,45.40
2019-04-16T21:29:14.165Z,45.50
2019-04-16T21:32:35.453Z,45.60
2019-04-16T21:35:42.723Z,45.70
2019-04-16T21:39:04.842Z,45.80
2019-04-16T21:42:09.174Z,45.80
2019-04-16T21:45:16.444Z,45.80
2019-04-16T21:48:20.017Z,45.90
2019-04-16T21:51:24.564Z,45.90
2019-04-16T21:54:30.460Z,45.90
2019-04-16T21:57:34.936Z,46.00
2019-04-16T22:00:59.765Z,46.00
2019-04-16T22:04:14.656Z,46.10
2019-04-16T22:07:24.215Z,46.80
2019-04-16T22:10:25.263Z,46.20
2019-04-16T22:13:29.954Z,46.20
2019-04-16T22:16:34.235Z,46.30
2019-04-16T22:19:53.007Z,46.40
2019-04-16T22:22:46.547Z,46.20
2019-04-16T22:25:50.677Z,46.50
2019-04-16T22:28:55.035Z,46.40
2019-04-16T22:31:59.419Z,46.40
2019-04-16T22:35:03.820Z,46.50
2019-04-16T22:38:13.273Z,46.50
2019-04-16T22:41:28.973Z,46.70
2019-04-16T22:44:47.005Z,46.80
2019-04-16T22:47:51.505Z,46.90
2019-04-16T22:50:55.933Z,46.90
2019-04-16T22:54:00.429Z,47.10
2019-04-16T22:57:06.742Z,47.10
2019-04-16T23:00:32.779Z,47.70
2019-04-16T23:03:37.188Z,47.20
2019-04-16T23:06:41.443Z,47.30
2019-04-16T23:09:48.324Z,47.20
2019-04-16T23:12:51.744Z,47.20
2019-04-16T23:15:56.082Z,47.10
2019-04-16T23:19:00.414Z,47.10
2019-04-16T23:22:04.816Z,47.40
2019-04-16T23:25:09.249Z,47.00
2019-04-16T23:28:13.571Z,47.10
2019-04-16T23:31:23.964Z,46.80
2019-04-16T23:34:29.130Z,47.00
2019-04-16T23:37:33.439Z,47.10
2019-04-16T23:40:40.760Z,47.10
2019-04-16T23:44:08.936Z,47.10
2019-04-16T23:47:42.205Z,47.10
2019-04-16T23:50:53.607Z,47.10
2019-04-16T23:54:07.909Z,47.20
2019-04-16T23:57:26.425Z,47.20
